createdAt,value
2022-09-26T00:01:08.177Z,12.17
2022-09-26T00:03:35.771Z,12.07
2022-09-26T00:06:04.369Z,12.14
2022-09-26T00:08:30.977Z,12.13
2022-09-26T00:10:58.668Z,12.14
2022-09-26T00:13:30.673Z,12.21
2022-09-26T00:15:58.230Z,12.20
2022-09-26T00:18:25.635Z,12.19
2022-09-26T00:20:52.585Z,12.18
2022-09-26T00:23:19.550Z,12.23
2022-09-26T00:25:51.381Z,12.13
2022-09-26T00:28:19.466Z,12.12
2022-09-26T00:30:46.105Z,12.09
2022-09-26T00:33:13.114Z,12.12
2022-09-26T00:35:39.886Z,12.11
2022-09-26T00:38:06.945Z,12.07
2022-09-26T00:40:33.651Z,12.14
2022-09-26T00:43:00.283Z,12.09
2022-09-26T00:45:30.851Z,12.02
2022-09-26T00:48:01.570Z,12.03
2022-09-26T00:50:36.917Z,12.09
2022-09-26T00:53:26.241Z,12.11
2022-09-26T00:56:06.209Z,12.11
2022-09-26T00:58:38.737Z,12.05
2022-09-26T01:01:06.613Z,12.10
2022-09-26T01:03:36.354Z,12.09
2022-09-26T01:06:03.185Z,12.02
2022-09-26T01:08:36.972Z,11.95
2022-09-26T01:11:04.476Z,11.95
2022-09-26T01:13:34.526Z,11.96
2022-09-26T01:16:01.481Z,12.01
2022-09-26T01:18:28.371Z,11.97
2022-09-26T01:21:22.554Z,11.96
2022-09-26T01:24:12.818Z,11.95
2022-09-26T01:26:58.013Z,12.01
2022-09-26T01:29:56.919Z,12.04
2022-09-26T01:32:51.025Z,11.91
2022-09-26T01:36:02.118Z,11.83
2022-09-26T01:38:58.219Z,11.75
2022-09-26T01:42:01.641Z,11.73
2022-09-26T01:44:48.824Z,11.66
2022-09-26T01:47:25.799Z,11.67
2022-09-26T01:50:01.370Z,11.70
2022-09-26T01:52:46.212Z,11.55
2022-09-26T01:55:18.127Z,11.54
2022-09-26T01:57:58.385Z,11.45
2022-09-26T02:00:25.068Z,11.41
2022-09-26T02:02:51.767Z,11.35
2022-09-26T02:05:38.782Z,11.33
2022-09-26T02:08:09.829Z,11.21
2022-09-26T02:10:47.172Z,11.12
2022-09-26T02:13:17.775Z,11.02
2022-09-26T02:15:49.750Z,10.92
2022-09-26T02:18:26.739Z,10.86
2022-09-26T02:21:01.346Z,10.82
2022-09-26T02:23:28.159Z,10.73
2022-09-26T02:25:54.857Z,10.71
2022-09-26T02:28:22.055Z,10.63
2022-09-26T02:30:50.722Z,10.55
2022-09-26T02:33:17.394Z,10.56
2022-09-26T02:35:56.429Z,10.52
2022-09-26T02:38:25.192Z,10.50
2022-09-26T02:41:29.200Z,10.41
2022-09-26T02:44:33.488Z,10.33
2022-09-26T02:47:05.856Z,10.30
2022-09-26T02:49:46.203Z,10.21
2022-09-26T02:52:37.419Z,10.21
2022-09-26T02:55:18.062Z,10.12
2022-09-26T02:57:55.225Z,10.08
2022-09-26T03:00:31.750Z,10.08
2022-09-26T03:03:08.110Z,9.98
2022-09-26T03:05:38.770Z,9.96
2022-09-26T03:08:11.931Z,9.87
2022-09-26T03:10:40.480Z,9.78
2022-09-26T03:13:11.173Z,9.82
2022-09-26T03:15:40.695Z,9.82
2022-09-26T03:18:12.999Z,9.76
2022-09-26T03:20:40.986Z,9.71
2022-09-26T03:23:07.759Z,9.68
2022-09-26T03:25:34.281Z,9.66
2022-09-26T03:28:02.356Z,9.57
2022-09-26T03:30:29.982Z,9.61
2022-09-26T03:32:56.551Z,9.59
2022-09-26T03:35:23.526Z,9.60
2022-09-26T03:37:49.996Z,9.60
2022-09-26T03:40:16.597Z,9.59
2022-09-26T03:42:43.505Z,9.57
2022-09-26T03:45:11.023Z,9.55
2022-09-26T03:47:42.064Z,9.51
2022-09-26T03:50:09.546Z,9.46
2022-09-26T03:52:36.680Z,9.47
2022-09-26T03:55:04.623Z,9.46
2022-09-26T03:57:31.231Z,9.34
2022-09-26T03:59:57.758Z,9.24
2022-09-26T04:02:24.423Z,9.15
2022-09-26T04:04:51.029Z,9.09
2022-09-26T04:07:17.580Z,9.04
2022-09-26T04:09:44.268Z,9.00
2022-09-26T04:12:10.836Z,8.89
2022-09-26T04:14:37.443Z,8.86
2022-09-26T04:17:03.969Z,8.85
2022-09-26T04:19:30.613Z,8.82
2022-09-26T04:21:57.252Z,8.77
2022-09-26T04:24:23.817Z,8.77
2022-09-26T04:26:50.408Z,8.75
2022-09-26T04:29:17.368Z,8.74
2022-09-26T04:31:44.032Z,8.76
2022-09-26T04:34:11.629Z,8.74
2022-09-26T04:36:38.802Z,8.72
2022-09-26T04:39:05.675Z,8.70
2022-09-26T04:41:32.627Z,8.67
2022-09-26T04:44:01.146Z,8.62
2022-09-26T04:46:31.028Z,8.56
2022-09-26T04:49:00.388Z,8.52
2022-09-26T04:51:28.435Z,8.50
2022-09-26T04:53:55.268Z,8.52
2022-09-26T04:56:23.645Z,8.53
2022-09-26T04:58:50.531Z,8.49
2022-09-26T05:01:19.299Z,8.53
2022-09-26T05:03:45.972Z,8.54
2022-09-26T05:06:13.839Z,8.50
2022-09-26T05:08:41.553Z,8.49
2022-09-26T05:11:09.590Z,8.54
2022-09-26T05:13:38.026Z,8.51
2022-09-26T05:16:05.762Z,8.55
2022-09-26T05:18:33.747Z,8.55
2022-09-26T05:21:01.795Z,8.54
2022-09-26T05:23:46.829Z,8.57
2022-09-26T05:26:22.441Z,8.57
2022-09-26T05:28:57.393Z,8.60
2022-09-26T05:31:29.233Z,8.59
2022-09-26T05:33:58.727Z,8.61
2022-09-26T05:36:26.965Z,8.67
2022-09-26T05:38:53.942Z,8.72
2022-09-26T05:41:20.858Z,8.80
2022-09-26T05:43:47.850Z,8.86
2022-09-26T05:46:15.470Z,8.90
2022-09-26T05:48:42.468Z,8.92
2022-09-26T05:51:16.851Z,9.08
2022-09-26T05:53:45.703Z,9.14
2022-09-26T05:56:18.342Z,9.21
2022-09-26T05:58:45.453Z,9.27
2022-09-26T06:01:16.414Z,9.40
2022-09-26T06:03:44.925Z,9.50
2022-09-26T06:06:16.201Z,9.59
2022-09-26T06:08:43.561Z,9.72
2022-09-26T06:11:13.873Z,9.79
2022-09-26T06:13:44.140Z,9.89
2022-09-26T06:16:13.698Z,10.03
2022-09-26T06:18:41.995Z,10.12
2022-09-26T06:21:10.793Z,10.19
2022-09-26T06:23:37.390Z,10.28
2022-09-26T06:26:08.152Z,10.36
2022-09-26T06:28:36.168Z,10.47
2022-09-26T06:31:15.045Z,10.57
2022-09-26T06:33:41.635Z,10.69
2022-09-26T06:36:10.695Z,10.86
2022-09-26T06:38:38.268Z,10.95
2022-09-26T06:41:07.524Z,11.13
2022-09-26T06:43:34.661Z,11.28
2022-09-26T06:46:01.733Z,11.40
2022-09-26T06:48:28.334Z,11.50
2022-09-26T06:51:00.647Z,11.69
2022-09-26T06:53:28.307Z,11.84
2022-09-26T06:55:55.256Z,11.87
2022-09-26T06:58:21.738Z,12.04
2022-09-26T07:00:48.664Z,12.25
2022-09-26T07:03:16.286Z,12.28
2022-09-26T07:05:44.995Z,12.38
2022-09-26T07:08:11.645Z,12.58
2022-09-26T07:10:38.594Z,12.84
2022-09-26T07:13:07.841Z,13.14
2022-09-26T07:15:36.262Z,13.49
2022-09-26T07:18:05.147Z,13.71
2022-09-26T07:20:35.913Z,14.12
2022-09-26T07:23:10.148Z,14.19
2022-09-26T07:25:39.498Z,14.63
2022-09-26T07:28:07.569Z,14.52
2022-09-26T07:30:34.739Z,14.73
2022-09-26T07:33:03.793Z,14.29
2022-09-26T07:35:34.933Z,14.25
2022-09-26T07:38:02.234Z,14.52
2022-09-26T07:40:28.939Z,14.76
2022-09-26T07:43:20.466Z,15.21
2022-09-26T07:46:09.904Z,15.62
2022-09-26T07:48:55.483Z,15.77
2022-09-26T07:51:23.235Z,16.20
2022-09-26T07:53:49.989Z,15.87
2022-09-26T07:56:16.983Z,15.47
2022-09-26T07:58:43.797Z,15.13
2022-09-26T08:01:13.297Z,15.03
2022-09-26T08:03:42.276Z,15.02
2022-09-26T08:06:09.681Z,14.62
2022-09-26T08:08:36.830Z,14.85
2022-09-26T08:11:04.634Z,14.62
2022-09-26T08:13:32.259Z,14.86
2022-09-26T08:16:06.195Z,14.96
2022-09-26T08:18:33.814Z,14.89
2022-09-26T08:21:06.822Z,14.80
2022-09-26T08:23:34.266Z,14.74
2022-09-26T08:26:05.256Z,14.89
2022-09-26T08:28:31.857Z,14.71
2022-09-26T08:31:00.902Z,14.86
2022-09-26T08:33:27.512Z,15.05
2022-09-26T08:35:54.187Z,15.28
2022-09-26T08:38:20.920Z,15.37
2022-09-26T08:40:57.845Z,15.27
2022-09-26T08:43:33.564Z,15.37
2022-09-26T08:46:12.893Z,15.29
2022-09-26T08:48:52.039Z,15.61
2022-09-26T08:51:37.825Z,15.48
2022-09-26T08:54:17.304Z,15.33
2022-09-26T08:56:48.675Z,15.30
2022-09-26T08:59:23.444Z,15.38
2022-09-26T09:01:52.945Z,15.32
2022-09-26T09:04:25.533Z,15.59
2022-09-26T09:07:04.489Z,15.59
2022-09-26T09:09:31.091Z,15.27
2022-09-26T09:12:32.510Z,15.23
2022-09-26T09:15:29.019Z,15.75
2022-09-26T09:18:14.386Z,15.73
2022-09-26T09:20:46.908Z,15.33
2022-09-26T09:23:23.526Z,15.17
2022-09-26T09:29:10.536Z,15.21
2022-09-26T09:31:41.526Z,15.19
2022-09-26T09:34:31.548Z,15.62
2022-09-26T09:37:04.204Z,15.97
2022-09-26T09:39:37.273Z,16.28
2022-09-26T09:42:17.135Z,16.37
2022-09-26T09:44:52.677Z,17.16
2022-09-26T09:47:19.217Z,17.73
2022-09-26T09:49:49.320Z,17.18
2022-09-26T09:52:44.010Z,17.12
2022-09-26T09:55:31.465Z,17.43
2022-09-26T09:58:04.152Z,17.54
2022-09-26T10:00:33.835Z,17.53
2022-09-26T10:03:15.585Z,17.43
2022-09-26T10:05:45.364Z,17.21
2022-09-26T10:08:16.922Z,17.03
2022-09-26T10:10:48.221Z,17.08
2022-09-26T10:13:16.292Z,17.55
2022-09-26T10:15:50.463Z,18.21
2022-09-26T10:18:25.171Z,18.45
2022-09-26T10:20:57.414Z,18.65
2022-09-26T10:23:33.633Z,18.31
2022-09-26T10:26:08.107Z,18.24
2022-09-26T10:28:48.400Z,18.44
2022-09-26T10:31:42.383Z,17.85
2022-09-26T10:34:28.138Z,17.68
2022-09-26T10:36:56.086Z,17.55
2022-09-26T10:39:48.891Z,17.78
2022-09-26T10:42:20.123Z,17.89
2022-09-26T10:44:48.684Z,18.06
2022-09-26T10:47:18.844Z,18.16
2022-09-26T10:49:52.869Z,18.37
2022-09-26T10:52:50.610Z,18.58
2022-09-26T10:55:24.930Z,17.64
2022-09-26T10:57:55.189Z,17.21
2022-09-26T11:00:35.383Z,16.89
2022-09-26T11:03:02.171Z,16.61
2022-09-26T11:05:47.512Z,16.94
2022-09-26T11:08:15.097Z,17.23
2022-09-26T11:10:42.281Z,17.16
2022-09-26T11:13:24.097Z,16.98
2022-09-26T11:16:09.039Z,17.90
2022-09-26T11:18:52.290Z,18.39
2022-09-26T11:21:29.762Z,18.40
2022-09-26T11:24:23.753Z,18.06
2022-09-26T11:27:11.426Z,18.28
2022-09-26T11:29:57.339Z,18.82
2022-09-26T11:32:43.200Z,19.59
2022-09-26T11:35:21.166Z,18.75
2022-09-26T11:38:11.983Z,18.25
2022-09-26T11:41:07.392Z,18.79
2022-09-26T11:44:06.994Z,18.45
2022-09-26T11:46:52.534Z,18.95
2022-09-26T11:49:37.385Z,18.71
2022-09-26T11:52:25.354Z,18.35
2022-09-26T11:55:10.805Z,17.62
2022-09-26T11:57:45.224Z,16.72
2022-09-26T12:00:27.640Z,16.86
2022-09-26T12:03:19.888Z,16.70
2022-09-26T12:06:00.641Z,16.20
2022-09-26T12:08:52.832Z,16.48
2022-09-26T12:11:28.902Z,16.80
2022-09-26T12:14:14.393Z,16.89
2022-09-26T12:17:04.081Z,16.73
2022-09-26T12:20:03.255Z,16.37
2022-09-26T12:22:36.084Z,16.97
2022-09-26T12:25:22.905Z,17.58
2022-09-26T12:28:27.112Z,17.76
2022-09-26T12:31:02.004Z,17.76
2022-09-26T12:33:56.778Z,17.40
2022-09-26T12:36:31.618Z,16.87
2022-09-26T12:39:28.803Z,16.72
2022-09-26T12:42:11.122Z,16.69
2022-09-26T12:45:06.785Z,16.42
2022-09-26T12:47:45.564Z,16.47
2022-09-26T12:50:29.437Z,16.36
2022-09-26T12:53:10.246Z,16.28
2022-09-26T12:55:55.504Z,16.65
2022-09-26T12:58:29.290Z,17.21
2022-09-26T13:01:15.213Z,17.19
2022-09-26T13:04:08.060Z,17.02
2022-09-26T13:07:17.830Z,17.02
2022-09-26T13:10:14.158Z,17.05
2022-09-26T13:13:06.352Z,17.37
2022-09-26T13:15:46.460Z,17.54
2022-09-26T13:18:26.516Z,16.90
2022-09-26T13:21:06.067Z,16.79
2022-09-26T13:23:37.901Z,16.83
2022-09-26T13:26:14.884Z,17.00
2022-09-26T13:29:13.325Z,16.79
2022-09-26T13:31:47.430Z,16.82
2022-09-26T13:34:25.113Z,16.77
2022-09-26T13:36:52.707Z,16.82
2022-09-26T13:39:50.855Z,16.65
2022-09-26T13:42:50.877Z,16.54
2022-09-26T13:45:25.710Z,16.51
2022-09-26T13:47:56.959Z,16.71
2022-09-26T13:50:46.295Z,16.67
2022-09-26T13:53:35.472Z,16.73
2022-09-26T13:56:36.308Z,16.57
2022-09-26T13:59:27.428Z,16.56
2022-09-26T14:02:16.086Z,16.49
2022-09-26T14:04:48.101Z,16.22
2022-09-26T14:07:35.910Z,16.23
2022-09-26T14:10:02.320Z,16.09
2022-09-26T14:12:51.393Z,15.92
2022-09-26T14:15:51.047Z,16.00
2022-09-26T14:18:49.411Z,15.97
2022-09-26T14:21:33.669Z,15.73
2022-09-26T14:24:18.825Z,15.72
2022-09-26T14:26:50.573Z,15.78
2022-09-26T14:29:53.850Z,15.91
2022-09-26T14:32:27.952Z,16.05
2022-09-26T14:34:57.970Z,16.08
2022-09-26T14:37:24.507Z,16.02
2022-09-26T14:40:00.275Z,15.86
2022-09-26T14:42:29.562Z,15.73
2022-09-26T14:44:59.990Z,15.64
2022-09-26T14:47:40.444Z,15.82
2022-09-26T14:50:35.452Z,15.97
2022-09-26T14:53:13.230Z,16.03
2022-09-26T14:56:06.156Z,15.93
2022-09-26T14:58:45.128Z,15.89
2022-09-26T15:01:18.334Z,15.86
2022-09-26T15:04:10.513Z,15.85
2022-09-26T15:06:44.689Z,15.74
2022-09-26T15:09:18.463Z,15.60
2022-09-26T15:11:51.457Z,15.54
2022-09-26T15:14:45.148Z,15.45
2022-09-26T15:17:27.957Z,15.45
2022-09-26T15:19:56.900Z,15.34
2022-09-26T15:22:25.742Z,15.40
2022-09-26T15:25:08.703Z,15.45
2022-09-26T15:27:35.401Z,15.35
2022-09-26T15:30:22.508Z,15.46
2022-09-26T15:32:49.334Z,15.50
2022-09-26T15:35:16.582Z,15.47
2022-09-26T15:37:43.430Z,15.46
2022-09-26T15:40:20.054Z,15.40
2022-09-26T15:42:59.079Z,15.28
2022-09-26T15:45:46.295Z,15.34
2022-09-26T15:48:24.781Z,15.46
2022-09-26T15:51:09.424Z,15.37
2022-09-26T15:53:48.451Z,15.32
2022-09-26T15:56:25.350Z,15.24
2022-09-26T15:59:01.082Z,15.33
2022-09-26T16:01:30.783Z,15.22
2022-09-26T16:04:15.655Z,15.18
2022-09-26T16:07:03.318Z,15.22
2022-09-26T16:09:34.048Z,15.30
2022-09-26T16:12:02.341Z,15.30
2022-09-26T16:14:46.644Z,15.25
2022-09-26T16:17:24.669Z,15.12
2022-09-26T16:19:55.262Z,15.12
2022-09-26T16:22:41.148Z,14.92
2022-09-26T16:25:25.916Z,14.97
2022-09-26T16:28:20.971Z,14.94
2022-09-26T16:31:01.693Z,14.81
2022-09-26T16:33:31.802Z,14.79
2022-09-26T16:36:17.179Z,14.77
2022-09-26T16:38:50.876Z,14.75
2022-09-26T16:41:48.780Z,14.71
2022-09-26T16:44:49.870Z,14.59
2022-09-26T16:47:33.456Z,14.53
2022-09-26T16:50:29.112Z,14.48
2022-09-26T16:52:55.825Z,14.44
2022-09-26T16:55:23.329Z,14.46
2022-09-26T16:57:58.425Z,14.42
2022-09-26T17:00:50.008Z,14.37
2022-09-26T17:03:23.238Z,14.28
2022-09-26T17:05:51.303Z,14.03
2022-09-26T17:08:18.536Z,13.87
2022-09-26T17:10:46.466Z,13.88
2022-09-26T17:13:23.485Z,13.81
2022-09-26T17:15:55.813Z,13.67
2022-09-26T17:18:33.289Z,13.53
2022-09-26T17:21:00.726Z,13.55
2022-09-26T17:23:39.795Z,13.52
2022-09-26T17:26:07.810Z,13.57
2022-09-26T17:28:40.470Z,13.53
2022-09-26T17:31:10.509Z,13.32
2022-09-26T17:33:40.727Z,13.33
2022-09-26T17:36:10.976Z,13.34
2022-09-26T17:38:40.376Z,13.28
2022-09-26T17:41:07.004Z,13.22
2022-09-26T17:43:34.084Z,13.11
2022-09-26T17:46:01.600Z,12.89
2022-09-26T17:48:31.478Z,12.83
2022-09-26T17:51:00.644Z,12.67
2022-09-26T17:53:37.187Z,12.54
2022-09-26T17:56:06.373Z,12.58
2022-09-26T17:58:34.344Z,12.61
2022-09-26T18:01:04.146Z,12.62
2022-09-26T18:03:34.146Z,12.65
2022-09-26T18:06:01.651Z,12.59
2022-09-26T18:08:30.666Z,12.54
2022-09-26T18:11:01.022Z,12.59
2022-09-26T18:13:34.516Z,12.50
2022-09-26T18:16:02.072Z,12.50
2022-09-26T18:18:32.926Z,12.51
2022-09-26T18:21:04.124Z,12.43
2022-09-26T18:23:45.535Z,12.42
2022-09-26T18:26:30.251Z,12.51
2022-09-26T18:28:59.211Z,12.45
2022-09-26T18:31:34.736Z,12.45
2022-09-26T18:34:03.261Z,12.32
2022-09-26T18:36:33.366Z,12.36
2022-09-26T18:39:00.167Z,12.15
2022-09-26T18:41:28.717Z,12.21
2022-09-26T18:44:00.316Z,12.16
2022-09-26T18:46:29.261Z,12.15
2022-09-26T18:49:06.146Z,12.09
2022-09-26T18:51:33.379Z,12.12
2022-09-26T18:54:01.757Z,12.07
2022-09-26T18:56:46.932Z,12.01
2022-09-26T18:59:14.737Z,11.96
2022-09-26T19:01:43.094Z,12.01
2022-09-26T19:04:30.734Z,11.87
2022-09-26T19:07:04.712Z,11.92
2022-09-26T19:09:33.896Z,11.90
2022-09-26T19:12:01.708Z,11.91
2022-09-26T19:14:30.321Z,11.90
2022-09-26T19:16:57.312Z,11.80
2022-09-26T19:19:25.390Z,11.76
2022-09-26T19:21:55.507Z,11.81
2022-09-26T19:24:36.600Z,11.80
2022-09-26T19:27:20.424Z,11.75
2022-09-26T19:29:55.147Z,11.79
2022-09-26T19:32:32.251Z,11.77
2022-09-26T19:35:02.866Z,11.67
2022-09-26T19:37:29.412Z,11.67
2022-09-26T19:39:57.856Z,11.60
2022-09-26T19:42:26.183Z,11.49
2022-09-26T19:44:52.844Z,11.45
2022-09-26T19:47:22.252Z,11.47
2022-09-26T19:49:50.936Z,11.53
2022-09-26T19:52:20.385Z,11.57
2022-09-26T19:54:47.316Z,11.49
2022-09-26T19:57:19.633Z,11.55
2022-09-26T19:59:48.489Z,11.63
2022-09-26T20:02:20.952Z,11.64
2022-09-26T20:04:48.103Z,11.71
2022-09-26T20:07:19.253Z,11.68
2022-09-26T20:09:46.365Z,11.64
2022-09-26T20:12:14.444Z,11.69
2022-09-26T20:14:41.011Z,11.65
2022-09-26T20:17:26.207Z,11.73
2022-09-26T20:19:58.734Z,11.72
2022-09-26T20:22:26.170Z,11.75
2022-09-26T20:24:57.031Z,11.63
2022-09-26T20:27:26.551Z,11.72
2022-09-26T20:30:11.830Z,11.74
2022-09-26T20:32:40.271Z,11.64
2022-09-26T20:35:10.138Z,11.71
2022-09-26T20:37:40.029Z,11.65
2022-09-26T20:40:12.507Z,11.71
2022-09-26T20:42:41.424Z,11.78
2022-09-26T20:45:16.065Z,11.90
2022-09-26T20:47:44.941Z,11.79
2022-09-26T20:50:20.423Z,11.85
2022-09-26T20:52:46.969Z,11.85
2022-09-26T20:55:15.855Z,11.81
2022-09-26T20:57:42.800Z,11.83
2022-09-26T21:00:20.720Z,11.86
2022-09-26T21:02:52.632Z,11.93
2022-09-26T21:05:27.237Z,11.90
2022-09-26T21:07:55.817Z,11.96
2022-09-26T21:10:25.965Z,12.02
2022-09-26T21:12:52.667Z,11.98
2022-09-26T21:15:20.731Z,11.93
2022-09-26T21:17:48.445Z,11.98
2022-09-26T21:20:23.817Z,11.99
2022-09-26T21:22:50.741Z,11.94
2022-09-26T21:25:19.772Z,11.95
2022-09-26T21:27:48.239Z,11.90
2022-09-26T21:30:16.675Z,11.97
2022-09-26T21:32:46.451Z,11.98
2022-09-26T21:35:15.798Z,11.92
2022-09-26T21:37:43.878Z,11.95
2022-09-26T21:40:10.740Z,11.96
2022-09-26T21:42:38.231Z,11.90
2022-09-26T21:45:09.944Z,11.92
2022-09-26T21:47:36.698Z,11.95
2022-09-26T21:50:05.651Z,11.89
2022-09-26T21:52:37.312Z,11.89
2022-09-26T21:55:06.286Z,11.88
2022-09-26T21:57:38.796Z,11.94
2022-09-26T22:00:09.762Z,11.90
2022-09-26T22:02:36.375Z,11.89
2022-09-26T22:05:02.942Z,11.80
2022-09-26T22:07:29.846Z,11.74
2022-09-26T22:09:56.404Z,11.78
2022-09-26T22:12:23.462Z,11.71
2022-09-26T22:14:50.183Z,11.77
2022-09-26T22:17:16.790Z,11.74
2022-09-26T22:19:43.427Z,11.72
2022-09-26T22:22:10.724Z,11.77
2022-09-26T22:24:37.422Z,11.80
2022-09-26T22:27:05.015Z,11.81
2022-09-26T22:29:31.695Z,11.76
2022-09-26T22:31:58.256Z,11.73
2022-09-26T22:34:25.724Z,11.75
2022-09-26T22:36:52.356Z,11.69
2022-09-26T22:39:18.918Z,11.78
2022-09-26T22:41:45.429Z,11.77
2022-09-26T22:44:12.167Z,11.74
2022-09-26T22:46:39.083Z,11.73
2022-09-26T22:49:06.057Z,11.83
2022-09-26T22:51:32.858Z,11.82
2022-09-26T22:53:59.371Z,11.73
2022-09-26T22:56:26.326Z,11.64
2022-09-26T22:58:52.908Z,11.53
2022-09-26T23:01:25.324Z,11.60
2022-09-26T23:03:53.048Z,11.40
2022-09-26T23:06:21.527Z,11.49
2022-09-26T23:08:48.307Z,11.55
2022-09-26T23:11:17.224Z,11.50
2022-09-26T23:13:44.570Z,11.47
2022-09-26T23:16:14.111Z,11.47
2022-09-26T23:18:41.728Z,11.42
2022-09-26T23:21:19.295Z,11.44
2022-09-26T23:23:48.307Z,11.46
2022-09-26T23:26:23.558Z,11.36
2022-09-26T23:28:51.798Z,11.41
2022-09-26T23:31:19.289Z,11.45
2022-09-26T23:33:45.984Z,11.50
2022-09-26T23:36:12.855Z,11.37
2022-09-26T23:38:40.463Z,11.41
2022-09-26T23:41:09.194Z,11.34
2022-09-26T23:43:36.135Z,11.38
2022-09-26T23:46:02.827Z,11.32
2022-09-26T23:48:29.621Z,11.34
2022-09-26T23:50:56.557Z,11.33
2022-09-26T23:53:23.228Z,11.26
2022-09-26T23:55:50.227Z,11.33
2022-09-26T23:58:17.022Z,11.30
